Time;durP1;ratioP1;P1;durP2;ratioP2;P2;SDS_P1;SDS_P2;PMS_P1;PMS_P2;Temp;Humidity;BMP_temperature;BMP_pressure;BME280_temperature;BME280_humidity;BME280_pressure;Samples;Min_cycle;Max_cycle;Signal;HPM_P1;HPM_P2
2023/02/23 00:01:29;;;;;;;10.20;3.93;;;-0.10;99.90;;;;;;5032893;28;20230;-85
2023/02/23 00:03:56;;;;;;;7.87;4.80;;;-0.10;99.90;;;;;;5015228;28;20236;-85
2023/02/23 00:06:24;;;;;;;8.83;3.97;;;-0.10;99.90;;;;;;5032976;28;20176;-85
2023/02/23 00:08:51;;;;;;;8.87;5.33;;;-0.10;99.90;;;;;;5032800;28;20219;-87
2023/02/23 00:11:17;;;;;;;5.53;3.63;;;-0.10;99.90;;;;;;5032960;28;20201;-85
2023/02/23 00:13:45;;;;;;;13.13;3.53;;;-0.10;99.90;;;;;;5015229;28;20180;-85
2023/02/23 00:16:16;;;;;;;7.13;3.50;;;-0.10;99.90;;;;;;5015540;28;20313;-85
2023/02/23 00:18:49;;;;;;;3.90;2.80;;;-0.10;99.90;;;;;;5033046;28;20164;-86
2023/02/23 00:21:18;;;;;;;6.37;4.33;;;-0.10;99.90;;;;;;5032863;28;20226;-85
2023/02/23 00:23:50;;;;;;;2.40;2.20;;;-0.10;99.90;;;;;;5032777;28;20693;-85
2023/02/23 00:26:19;;;;;;;4.43;2.20;;;-0.10;99.90;;;;;;5015002;28;20303;-85
2023/02/23 00:28:46;;;;;;;1.93;1.83;;;0.00;99.90;;;;;;5015329;28;20225;-85
2023/02/23 00:31:12;;;;;;;2.03;1.80;;;0.00;99.90;;;;;;5014697;28;20208;-85
2023/02/23 00:33:40;;;;;;;2.83;1.73;;;-0.10;99.90;;;;;;5015174;28;20228;-85
2023/02/23 00:36:12;;;;;;;4.00;2.17;;;-0.10;99.90;;;;;;5015148;28;20188;-85
2023/02/23 00:38:39;;;;;;;3.93;2.70;;;-0.10;99.90;;;;;;5027689;28;20272;-84
2023/02/23 00:41:16;;;;;;;8.03;3.57;;;0.00;99.90;;;;;;5033542;28;20185;-84
2023/02/23 00:43:46;;;;;;;2.57;1.93;;;0.00;99.90;;;;;;5036153;28;20169;-85
2023/02/23 00:46:17;;;;;;;8.40;3.00;;;0.00;99.90;;;;;;5015595;28;20169;-86
2023/02/23 00:48:44;;;;;;;3.07;2.87;;;-0.10;99.90;;;;;;5033355;28;20259;-86
2023/02/23 00:51:11;;;;;;;9.70;3.03;;;0.00;99.90;;;;;;5018503;28;20208;-84
2023/02/23 00:53:37;;;;;;;7.43;3.20;;;-0.10;99.90;;;;;;5018623;28;20173;-84
2023/02/23 00:56:07;;;;;;;1.93;1.80;;;-0.10;99.90;;;;;;5036088;28;20532;-85
2023/02/23 00:58:33;;;;;;;2.67;1.93;;;-0.10;99.90;;;;;;5002852;28;20193;-84
2023/02/23 01:00:59;;;;;;;5.17;2.47;;;-0.10;99.90;;;;;;5018509;28;20651;-85
2023/02/23 01:03:26;;;;;;;3.33;2.40;;;-0.10;99.90;;;;;;5036244;28;20172;-85
2023/02/23 01:05:52;;;;;;;2.80;2.00;;;-0.10;99.90;;;;;;5036377;28;20235;-85
2023/02/23 01:08:17;;;;;;;1.07;1.07;;;-0.10;99.90;;;;;;5018196;28;20347;-85
2023/02/23 01:10:51;;;;;;;3.60;2.63;;;-0.10;99.90;;;;;;5018309;28;20627;-84
2023/02/23 01:13:20;;;;;;;3.03;1.93;;;-0.10;99.90;;;;;;5017828;28;20184;-85
2023/02/23 01:15:47;;;;;;;3.83;2.63;;;-0.10;99.90;;;;;;5018287;28;20192;-85
2023/02/23 01:18:17;;;;;;;3.17;2.70;;;-0.10;99.90;;;;;;5035806;28;20263;-85
2023/02/23 01:20:43;;;;;;;3.50;2.73;;;-0.10;99.90;;;;;;5018376;28;20190;-85
2023/02/23 01:23:13;;;;;;;9.90;3.13;;;-0.20;99.90;;;;;;5035617;28;20274;-85
2023/02/23 01:25:43;;;;;;;6.60;3.27;;;-0.10;99.90;;;;;;5017833;28;20195;-85
2023/02/23 01:28:12;;;;;;;5.20;2.60;;;0.10;99.90;;;;;;5035311;28;20260;-85
2023/02/23 01:30:39;;;;;;;6.67;3.00;;;0.00;99.90;;;;;;5001554;28;20657;-85
2023/02/23 01:33:05;;;;;;;4.17;3.03;;;-0.10;99.90;;;;;;5017878;28;20690;-85
2023/02/23 01:35:32;;;;;;;1.00;1.00;;;-0.10;99.90;;;;;;5035240;28;20555;-84
2023/02/23 01:37:58;;;;;;;1.63;1.53;;;-0.10;99.90;;;;;;5035548;28;20181;-85
2023/02/23 01:40:28;;;;;;;1.87;1.77;;;-0.10;99.90;;;;;;5034970;28;20622;-85
2023/02/23 01:43:15;;;;;;;1.80;1.70;;;-0.10;99.90;;;;;;5035594;28;20216;-85
2023/02/23 01:45:42;;;;;;;5.80;1.60;;;-0.10;99.90;;;;;;5035200;28;20545;-85
2023/02/23 01:48:13;;;;;;;2.40;2.07;;;-0.20;99.90;;;;;;5017175;28;20177;-85
2023/02/23 01:51:00;;;;;;;1.73;1.63;;;-0.20;99.90;;;;;;5017828;28;20200;-85
2023/02/23 01:53:29;;;;;;;1.43;1.33;;;-0.20;99.90;;;;;;5035155;28;20184;-85
2023/02/23 01:55:58;;;;;;;2.13;2.03;;;-0.10;99.90;;;;;;5034930;28;20267;-85
2023/02/23 01:58:27;;;;;;;1.10;1.10;;;-0.10;99.90;;;;;;5034742;28;20308;-86
2023/02/23 02:00:55;;;;;;;2.37;2.23;;;-0.20;99.90;;;;;;5035140;28;20173;-85
2023/02/23 02:03:27;;;;;;;2.07;1.97;;;-0.20;99.90;;;;;;5034685;28;20259;-85
2023/02/23 02:05:55;;;;;;;3.07;2.30;;;-0.20;99.90;;;;;;5034925;28;20185;-84
2023/02/23 02:08:23;;;;;;;1.50;1.40;;;-0.20;99.90;;;;;;5034934;28;20269;-85
2023/02/23 02:10:54;;;;;;;2.23;1.37;;;-0.20;99.90;;;;;;5017101;28;20272;-84
2023/02/23 02:13:24;;;;;;;1.93;1.83;;;-0.20;99.90;;;;;;5016719;28;20189;-84
2023/02/23 02:16:13;;;;;;;3.97;1.73;;;-0.20;99.90;;;;;;5034986;28;20176;-84
2023/02/23 02:18:45;;;;;;;3.60;1.83;;;-0.20;99.90;;;;;;5016852;28;20223;-84
2023/02/23 02:21:41;;;;;;;2.80;1.70;;;-0.20;99.90;;;;;;5017075;28;20206;-84
2023/02/23 02:24:37;;;;;;;2.47;2.23;;;-0.20;99.90;;;;;;5034744;28;20247;-85
2023/02/23 02:27:16;;;;;;;4.27;2.30;;;-0.20;99.90;;;;;;5016814;28;20234;-85
2023/02/23 02:30:18;;;;;;;2.23;2.13;;;-0.20;99.90;;;;;;5035054;28;20168;-84
2023/02/23 02:33:13;;;;;;;1.67;1.57;;;-0.20;99.90;;;;;;5016786;28;20219;-86
2023/02/23 02:35:50;;;;;;;10.83;2.67;;;-0.30;99.90;;;;;;5034742;28;20259;-85
2023/02/23 02:38:20;;;;;;;13.03;7.37;;;0.20;99.90;;;;;;5016642;28;20212;-85
2023/02/23 02:40:53;;;;;;;5.40;2.93;;;-0.30;99.90;;;;;;5034312;28;20200;-84
2023/02/23 02:43:41;;;;;;;7.33;2.37;;;-0.30;99.90;;;;;;5016173;28;20188;-84
2023/02/23 02:46:29;;;;;;;2.93;1.70;;;-0.20;99.90;;;;;;5016764;28;20185;-85
2023/02/23 02:49:22;;;;;;;4.80;2.30;;;-0.30;99.90;;;;;;5034391;28;20280;-85
2023/02/23 02:52:11;;;;;;;2.43;2.20;;;-0.30;99.90;;;;;;5016654;28;20219;-84
2023/02/23 02:54:48;;;;;;;1.50;1.50;;;-0.30;99.90;;;;;;5016749;28;20187;-85
2023/02/23 02:57:16;;;;;;;1.27;1.23;;;-0.30;99.90;;;;;;5034184;28;20160;-86
2023/02/23 04:17:37;;;;;;;5.87;1.80;;;-0.70;99.90;;;;;;5050574;28;20252;-83
2023/02/23 04:20:03;;;;;;;6.57;2.27;;;-0.60;99.90;;;;;;5050409;28;20177;-83
2023/02/23 04:22:29;;;;;;;4.33;2.47;;;-0.60;99.90;;;;;;5014007;28;20184;-85
2023/02/23 04:24:55;;;;;;;3.00;2.67;;;-0.70;99.90;;;;;;5009201;28;20549;-84
2023/02/23 04:27:21;;;;;;;2.17;2.00;;;-0.70;99.90;;;;;;5023053;28;20237;-85
2023/02/23 04:29:46;;;;;;;2.60;2.40;;;-0.70;99.90;;;;;;5024061;28;20593;-84
2023/02/23 04:32:15;;;;;;;2.57;2.37;;;-0.70;99.90;;;;;;5010311;28;20219;-86
2023/02/23 04:34:42;;;;;;;2.23;1.83;;;-0.70;99.90;;;;;;5018584;28;20262;-84
2023/02/23 04:37:08;;;;;;;2.00;1.90;;;-0.40;99.90;;;;;;5021616;28;20182;-84
2023/02/23 04:39:34;;;;;;;1.70;1.60;;;-0.70;99.90;;;;;;5044903;28;20192;-84
2023/02/23 04:41:59;;;;;;;3.53;2.43;;;-0.70;99.90;;;;;;5040711;28;20256;-84
2023/02/23 04:44:25;;;;;;;2.87;2.67;;;-0.70;99.90;;;;;;5023567;28;20187;-84
2023/02/23 04:46:51;;;;;;;5.70;3.10;;;-0.70;99.90;;;;;;5018949;28;20196;-85
2023/02/23 04:49:17;;;;;;;3.23;2.90;;;-0.70;99.90;;;;;;5019204;28;20180;-85
2023/02/23 04:51:42;;;;;;;3.33;3.03;;;-0.70;99.90;;;;;;5018349;28;20216;-84
2023/02/23 04:54:08;;;;;;;4.10;2.73;;;-0.70;99.90;;;;;;5017779;28;20201;-84
2023/02/23 04:56:34;;;;;;;6.80;3.47;;;-0.60;99.90;;;;;;4981103;28;20276;-85
2023/02/23 04:59:00;;;;;;;5.07;2.37;;;-0.60;99.90;;;;;;5033966;28;20181;-82
2023/02/23 05:01:27;;;;;;;3.07;2.80;;;-0.60;99.90;;;;;;5016561;28;20693;-83
2023/02/23 05:03:54;;;;;;;6.87;3.17;;;-0.50;99.90;;;;;;5000463;28;20184;-83
2023/02/23 05:06:20;;;;;;;2.97;1.93;;;-0.60;99.90;;;;;;5034121;28;20184;-83
2023/02/23 05:08:46;;;;;;;5.20;2.47;;;-0.50;99.90;;;;;;5033963;28;20605;-82
2023/02/23 05:11:12;;;;;;;6.33;2.30;;;-0.50;99.90;;;;;;5016587;28;20273;-83
2023/02/23 05:13:38;;;;;;;3.87;2.23;;;-0.50;99.90;;;;;;5000153;28;20230;-84
2023/02/23 05:16:04;;;;;;;5.70;2.30;;;-0.40;99.90;;;;;;4999946;28;20607;-82
2023/02/23 05:18:30;;;;;;;1.67;1.57;;;-0.50;99.90;;;;;;4983888;28;20687;-84
2023/02/23 05:21:07;;;;;;;9.30;1.73;;;-0.50;99.90;;;;;;5033285;28;20184;-83
2023/02/23 05:23:36;;;;;;;6.60;2.50;;;-0.40;99.90;;;;;;5033640;28;20190;-85
2023/02/23 05:26:07;;;;;;;2.03;1.57;;;-0.40;99.90;;;;;;5033302;28;20314;-84
2023/02/23 05:28:35;;;;;;;1.73;1.63;;;-0.40;99.90;;;;;;5015254;28;20229;-84
2023/02/23 05:31:02;;;;;;;3.37;2.13;;;-0.40;99.90;;;;;;5014887;28;20180;-84
2023/02/23 05:33:28;;;;;;;4.60;2.80;;;-0.40;99.90;;;;;;5031927;28;20247;-85
2023/02/23 05:35:54;;;;;;;1.63;1.63;;;-0.40;99.90;;;;;;4997884;28;20222;-86
2023/02/23 05:38:20;;;;;;;1.73;1.63;;;-0.40;99.90;;;;;;5032788;28;20192;-84
2023/02/23 05:40:46;;;;;;;4.87;2.20;;;-0.10;99.90;;;;;;5014223;28;20193;-85
2023/02/23 05:43:12;;;;;;;3.93;2.27;;;-0.30;99.90;;;;;;4998549;28;20562;-84
2023/02/23 05:45:42;;;;;;;3.13;2.03;;;-0.30;99.90;;;;;;5013904;28;20658;-85
2023/02/23 05:48:09;;;;;;;1.90;1.73;;;-0.40;99.90;;;;;;5032323;28;20753;-84
2023/02/23 05:50:35;;;;;;;1.97;1.87;;;-0.30;99.90;;;;;;5032074;28;20208;-84
2023/02/23 05:53:01;;;;;;;2.30;1.87;;;-0.30;99.90;;;;;;5032801;28;20252;-84
2023/02/23 05:55:27;;;;;;;1.43;1.37;;;-0.30;99.90;;;;;;5015174;28;20186;-85
2023/02/23 05:57:54;;;;;;;1.70;1.60;;;-0.30;99.90;;;;;;5005644;28;20231;-84
2023/02/23 06:00:20;;;;;;;3.67;2.23;;;-0.30;99.90;;;;;;5033905;28;20275;-84
2023/02/23 06:02:45;;;;;;;2.47;1.70;;;-0.30;99.90;;;;;;5033788;28;20602;-84
2023/02/23 06:05:12;;;;;;;2.90;2.43;;;-0.30;99.90;;;;;;5016094;28;20188;-84
2023/02/23 06:07:39;;;;;;;1.83;1.73;;;-0.20;99.90;;;;;;5016683;28;20188;-85
2023/02/23 06:10:06;;;;;;;2.77;1.73;;;-0.20;99.90;;;;;;5034405;28;20189;-84
2023/02/23 06:12:31;;;;;;;3.07;2.67;;;-0.20;99.90;;;;;;5017087;28;20216;-84
2023/02/23 06:14:57;;;;;;;2.20;2.00;;;-0.20;99.90;;;;;;5017616;28;20646;-84
2023/02/23 06:17:23;;;;;;;8.40;2.80;;;-0.20;99.90;;;;;;5000419;28;20540;-84
2023/02/23 06:19:49;;;;;;;8.93;1.57;;;-0.10;99.90;;;;;;5033805;28;20180;-85
2023/02/23 06:22:18;;;;;;;4.90;2.43;;;-0.10;99.90;;;;;;5016557;28;20195;-85
2023/02/23 06:24:44;;;;;;;3.60;1.63;;;-0.20;99.90;;;;;;5016742;28;20184;-84
2023/02/23 06:27:09;;;;;;;5.97;1.90;;;-0.10;99.90;;;;;;5016411;28;20238;-85
2023/02/23 06:29:36;;;;;;;2.37;2.17;;;-0.10;99.90;;;;;;5016020;28;20230;-84
2023/02/23 06:32:02;;;;;;;1.93;1.83;;;-0.10;99.90;;;;;;5015834;28;20643;-84
2023/02/23 06:34:28;;;;;;;2.03;1.83;;;-0.10;99.90;;;;;;5034357;28;20180;-84
2023/02/23 06:36:54;;;;;;;3.17;1.83;;;0.00;99.90;;;;;;5033678;28;20176;-84
2023/02/23 06:39:19;;;;;;;6.23;2.40;;;0.00;99.90;;;;;;4999822;28;20518;-86
2023/02/23 06:41:45;;;;;;;2.40;1.60;;;0.00;99.90;;;;;;5033321;28;20540;-85
2023/02/23 06:44:11;;;;;;;2.23;1.67;;;0.10;99.90;;;;;;5017820;28;20615;-85
2023/02/23 06:46:36;;;;;;;4.93;2.93;;;0.10;99.90;;;;;;4998531;28;20185;-85
2023/02/23 06:49:03;;;;;;;6.50;1.87;;;0.10;99.90;;;;;;5015970;28;20184;-85
2023/02/23 06:51:28;;;;;;;2.60;1.73;;;0.10;99.90;;;;;;5033191;28;20212;-84
2023/02/23 06:53:54;;;;;;;2.80;2.60;;;0.10;99.90;;;;;;5015289;28;20268;-84
2023/02/23 06:56:20;;;;;;;3.33;2.27;;;0.10;99.90;;;;;;5015723;28;20220;-85
2023/02/23 06:58:46;;;;;;;3.07;1.67;;;0.20;99.90;;;;;;5015271;28;20192;-85
2023/02/23 07:01:13;;;;;;;6.60;2.80;;;0.20;99.90;;;;;;5014632;28;20198;-85
2023/02/23 07:03:38;;;;;;;2.47;1.77;;;0.30;99.90;;;;;;5015381;28;20189;-85
2023/02/23 07:06:04;;;;;;;5.07;2.63;;;0.30;99.90;;;;;;5032330;28;20182;-84
2023/02/23 07:08:37;;;;;;;1.87;1.37;;;0.30;99.90;;;;;;5089414;28;20543;-86
2023/02/23 07:11:07;;;;;;;2.20;1.97;;;0.30;99.90;;;;;;5087208;28;20585;-86
2023/02/23 07:13:33;;;;;;;2.00;1.90;;;0.40;99.90;;;;;;5086751;28;20196;-87
2023/02/23 07:15:59;;;;;;;2.10;1.97;;;0.40;99.90;;;;;;5088847;28;20656;-86
2023/02/23 07:18:25;;;;;;;3.23;1.90;;;0.40;99.90;;;;;;5087813;28;20183;-86
2023/02/23 07:20:51;;;;;;;5.87;2.23;;;0.50;99.90;;;;;;5088433;28;20236;-86
2023/02/23 07:23:17;;;;;;;1.83;1.53;;;0.50;99.90;;;;;;5087953;28;20585;-86
2023/02/23 07:25:43;;;;;;;3.47;2.13;;;0.50;99.90;;;;;;5087220;28;20183;-86
2023/02/23 07:28:09;;;;;;;2.73;2.17;;;0.50;99.90;;;;;;5087830;28;20570;-84
2023/02/23 07:30:34;;;;;;;3.10;2.13;;;0.60;99.90;;;;;;5087239;28;20187;-84
2023/02/23 07:33:00;;;;;;;2.57;2.33;;;0.70;99.90;;;;;;5088289;28;20186;-85
2023/02/23 07:35:26;;;;;;;2.30;2.10;;;0.70;99.90;;;;;;5095533;28;20182;-85
2023/02/23 07:37:52;;;;;;;2.20;1.43;;;0.70;99.90;;;;;;5086379;28;20185;-85
2023/02/23 07:40:18;;;;;;;1.97;1.83;;;0.70;99.90;;;;;;5045629;28;20172;-84
2023/02/23 07:42:44;;;;;;;1.63;1.43;;;0.70;99.90;;;;;;5087749;28;20194;-85
2023/02/23 07:45:10;;;;;;;2.03;1.87;;;0.80;99.90;;;;;;5084726;28;20186;-84
2023/02/23 07:47:37;;;;;;;2.13;2.00;;;0.80;99.90;;;;;;5088446;28;20699;-84
2023/02/23 07:50:09;;;;;;;1.93;1.83;;;0.80;99.90;;;;;;5084818;28;20198;-85
2023/02/23 07:52:36;;;;;;;1.10;1.10;;;0.80;99.90;;;;;;5088211;28;20187;-85
2023/02/23 07:55:02;;;;;;;1.77;1.47;;;0.80;99.90;;;;;;5106699;28;20178;-84
2023/02/23 07:57:28;;;;;;;1.67;1.57;;;0.80;99.90;;;;;;5106691;28;20258;-84
2023/02/23 07:59:54;;;;;;;1.43;1.33;;;0.90;99.90;;;;;;5089259;28;20266;-86
2023/02/23 08:02:20;;;;;;;3.03;2.43;;;0.90;99.90;;;;;;5086033;28;20202;-84
2023/02/23 08:04:46;;;;;;;3.23;2.30;;;0.90;99.90;;;;;;5086477;28;20181;-83
2023/02/23 08:07:12;;;;;;;1.80;1.60;;;0.90;99.90;;;;;;5085601;28;20258;-85
2023/02/23 08:09:38;;;;;;;4.40;3.00;;;1.00;99.90;;;;;;5094438;28;20676;-84
2023/02/23 08:12:04;;;;;;;1.83;1.50;;;1.10;99.90;;;;;;5049547;28;20270;-85
2023/02/23 08:14:30;;;;;;;3.83;2.70;;;1.20;99.90;;;;;;5075260;28;20195;-85
2023/02/23 08:16:55;;;;;;;6.33;1.90;;;1.20;99.90;;;;;;5085562;28;20635;-85
2023/02/23 08:19:21;;;;;;;2.30;2.10;;;1.20;99.90;;;;;;5074255;28;20183;-84
2023/02/23 08:21:50;;;;;;;25.30;3.30;;;1.30;99.90;;;;;;5072137;28;20189;-85
2023/02/23 08:24:16;;;;;;;3.97;2.77;;;1.40;99.90;;;;;;5070744;28;20178;-85
2023/02/23 08:26:42;;;;;;;3.73;2.10;;;1.50;99.90;;;;;;5054940;28;20214;-85
2023/02/23 08:29:09;;;;;;;6.50;2.53;;;1.70;99.90;;;;;;5073377;28;20209;-84
2023/02/23 08:31:35;;;;;;;2.03;1.93;;;1.70;99.90;;;;;;5073992;28;20696;-85
2023/02/23 08:34:01;;;;;;;1.63;1.53;;;1.70;99.90;;;;;;5080236;28;20178;-85
2023/02/23 08:36:27;;;;;;;1.13;1.10;;;1.70;99.90;;;;;;5073537;28;20660;-85
2023/02/23 08:38:53;;;;;;;5.13;2.90;;;1.70;99.90;;;;;;5073207;28;20224;-85
2023/02/23 08:41:20;;;;;;;2.57;2.00;;;1.80;99.90;;;;;;5073154;28;20607;-85
2023/02/23 08:43:46;;;;;;;11.13;2.57;;;1.90;99.90;;;;;;5073331;28;20175;-85
2023/02/23 08:46:12;;;;;;;6.47;2.53;;;1.90;99.90;;;;;;5073702;28;20182;-85
2023/02/23 08:48:39;;;;;;;4.97;2.90;;;2.00;99.90;;;;;;5073225;28;20186;-84
2023/02/23 08:51:05;;;;;;;1.37;1.27;;;2.00;99.90;;;;;;5073241;28;20208;-84
2023/02/23 08:53:31;;;;;;;1.83;1.63;;;2.10;99.90;;;;;;5072096;28;20203;-83
2023/02/23 08:56:02;;;;;;;5.57;2.37;;;2.10;99.90;;;;;;5073083;28;20710;-87
2023/02/23 08:58:29;;;;;;;1.40;1.33;;;2.20;99.90;;;;;;5072964;28;20213;-86
2023/02/23 09:00:57;;;;;;;4.73;2.47;;;2.20;99.90;;;;;;5070341;28;20178;-86
2023/02/23 09:03:25;;;;;;;2.00;1.87;;;2.30;99.90;;;;;;5072131;28;20175;-85
2023/02/23 09:05:51;;;;;;;7.60;2.53;;;2.30;99.90;;;;;;5073383;28;20181;-89
2023/02/23 09:08:17;;;;;;;3.13;2.13;;;2.30;99.90;;;;;;5071530;28;20230;-86
2023/02/23 09:10:42;;;;;;;2.03;1.87;;;2.30;99.90;;;;;;5071460;28;20555;-85
2023/02/23 09:13:10;;;;;;;4.17;1.57;;;2.30;99.90;;;;;;5072062;28;20228;-88
2023/02/23 09:15:39;;;;;;;4.33;2.57;;;2.50;99.90;;;;;;5073135;28;20171;-87
2023/02/23 09:18:06;;;;;;;4.77;2.30;;;2.50;99.90;;;;;;5073282;28;20595;-86
2023/02/23 09:20:33;;;;;;;6.63;2.57;;;2.60;99.90;;;;;;5071668;28;20190;-86
2023/02/23 09:22:59;;;;;;;2.97;1.83;;;2.70;99.90;;;;;;5072219;28;20236;-87
2023/02/23 09:25:24;;;;;;;2.03;1.90;;;2.80;99.90;;;;;;5072864;28;20628;-87
2023/02/23 09:27:52;;;;;;;2.30;1.53;;;2.90;99.90;;;;;;5073082;28;20210;-85
2023/02/23 09:30:19;;;;;;;3.73;1.83;;;3.00;99.90;;;;;;5071722;28;20206;-85
2023/02/23 09:32:52;;;;;;;1.60;1.50;;;3.00;99.90;;;;;;5071397;28;20183;-85
2023/02/23 09:35:21;;;;;;;2.50;1.70;;;3.00;99.90;;;;;;5072663;28;20619;-86
2023/02/23 09:37:48;;;;;;;2.23;2.00;;;3.00;99.90;;;;;;5072169;28;20179;-85
2023/02/23 09:40:26;;;;;;;1.40;1.37;;;3.10;99.90;;;;;;5048197;28;20184;-85
2023/02/23 09:43:01;;;;;;;5.00;2.37;;;3.30;99.90;;;;;;5055616;28;20252;-85
2023/02/23 09:45:32;;;;;;;4.20;2.77;;;3.40;99.90;;;;;;5072225;28;20166;-85
2023/02/23 09:48:17;;;;;;;4.53;1.90;;;3.50;99.90;;;;;;5070842;28;20288;-84
2023/02/23 09:50:47;;;;;;;3.43;2.17;;;3.50;99.90;;;;;;5072917;28;20164;-86
2023/02/23 09:53:25;;;;;;;5.47;2.13;;;3.60;99.90;;;;;;5072936;28;20167;-86
2023/02/23 09:55:53;;;;;;;4.97;1.77;;;3.60;99.90;;;;;;5072959;28;20170;-85
2023/02/23 09:58:33;;;;;;;5.67;2.47;;;3.60;99.90;;;;;;5070078;28;20210;-85
2023/02/23 10:01:17;;;;;;;3.27;2.60;;;3.70;99.90;;;;;;5070240;28;20163;-85
2023/02/23 10:03:58;;;;;;;2.37;2.17;;;3.90;99.90;;;;;;5069743;28;20198;-85
2023/02/23 10:06:24;;;;;;;3.43;2.10;;;4.00;99.90;;;;;;5071341;28;20257;-86
2023/02/23 10:09:23;;;;;;;2.20;1.97;;;4.10;99.90;;;;;;5070888;28;20280;-85
2023/02/23 10:12:23;;;;;;;6.73;2.33;;;4.20;99.90;;;;;;5074183;28;20159;-85
2023/02/23 10:14:52;;;;;;;2.77;1.80;;;4.30;99.90;;;;;;5086337;28;20252;-85
2023/02/23 10:17:23;;;;;;;4.67;3.50;;;4.30;99.00;;;;;;5090127;28;20256;-85
2023/02/23 10:20:02;;;;;;;4.60;2.83;;;4.30;99.90;;;;;;5090903;28;20171;-87
2023/02/23 10:22:31;;;;;;;2.87;2.27;;;4.30;99.90;;;;;;5073676;28;20160;-85
2023/02/23 10:25:05;;;;;;;4.67;2.27;;;4.50;99.40;;;;;;5072852;28;20332;-84
2023/02/23 10:27:40;;;;;;;1.77;1.53;;;4.50;97.20;;;;;;5086736;28;20217;-85
2023/02/23 10:30:33;;;;;;;4.23;2.83;;;4.40;99.30;;;;;;5092578;28;20167;-86
2023/02/23 10:33:19;;;;;;;2.50;1.90;;;4.60;99.60;;;;;;5090165;28;20206;-85
2023/02/23 10:35:45;;;;;;;2.87;2.20;;;4.80;98.60;;;;;;5081385;28;20166;-84
2023/02/23 10:38:16;;;;;;;5.90;1.87;;;4.90;99.00;;;;;;5093324;28;20187;-85
2023/02/23 10:40:45;;;;;;;3.13;1.80;;;5.00;97.60;;;;;;5078120;28;20666;-86
2023/02/23 10:43:12;;;;;;;2.50;2.03;;;5.00;97.80;;;;;;5070000;28;20573;-86
2023/02/23 10:45:45;;;;;;;4.60;2.43;;;5.20;98.00;;;;;;5070375;28;20179;-85
2023/02/23 10:48:21;;;;;;;5.00;2.20;;;5.40;97.40;;;;;;5071580;28;20678;-86
2023/02/23 10:50:49;;;;;;;2.67;2.00;;;5.30;95.80;;;;;;5064005;28;20187;-85
2023/02/23 10:53:34;;;;;;;7.87;3.27;;;5.40;96.00;;;;;;5070594;28;20232;-85
2023/02/23 10:56:14;;;;;;;6.80;3.13;;;5.30;95.50;;;;;;5066049;28;20167;-87
2023/02/23 10:58:54;;;;;;;7.00;3.67;;;5.40;96.30;;;;;;5071249;28;20185;-84
2023/02/23 11:01:43;;;;;;;7.67;3.83;;;5.40;97.00;;;;;;5068409;28;20167;-84
2023/02/23 11:04:18;;;;;;;5.60;2.73;;;5.50;97.50;;;;;;5069350;28;20171;-86
2023/02/23 11:06:44;;;;;;;8.77;3.67;;;5.70;97.70;;;;;;5068838;28;20213;-86
2023/02/23 11:09:31;;;;;;;6.43;3.17;;;5.90;95.30;;;;;;5069752;28;20187;-85
2023/02/23 11:12:01;;;;;;;6.73;3.50;;;5.80;96.20;;;;;;5069814;28;20167;-86
2023/02/23 11:14:29;;;;;;;2.57;2.20;;;5.90;95.60;;;;;;5070951;28;20167;-85
2023/02/23 11:16:57;;;;;;;8.13;4.07;;;5.90;95.50;;;;;;5069778;28;20198;-85
2023/02/23 11:19:43;;;;;;;5.63;3.37;;;5.90;95.80;;;;;;5070531;28;20210;-84
2023/02/23 11:22:22;;;;;;;12.17;3.07;;;6.00;96.60;;;;;;5093495;28;20202;-85
2023/02/23 11:24:48;;;;;;;4.97;3.07;;;6.00;95.60;;;;;;5078997;28;20650;-85
2023/02/23 11:27:25;;;;;;;5.57;3.07;;;6.00;95.40;;;;;;5070654;28;20219;-88
2023/02/23 11:29:54;;;;;;;7.90;3.47;;;6.90;96.10;;;;;;5071711;28;20183;-87
2023/02/23 11:32:25;;;;;;;7.20;4.13;;;6.10;95.60;;;;;;5071585;28;20197;-86
2023/02/23 11:35:11;;;;;;;4.77;3.23;;;6.20;94.50;;;;;;5070932;28;20240;-85
2023/02/23 11:37:38;;;;;;;6.30;2.70;;;6.00;94.30;;;;;;5071262;28;20183;-85
2023/02/23 11:40:17;;;;;;;7.57;2.87;;;6.30;95.40;;;;;;5071960;28;20290;-85
2023/02/23 11:43:08;;;;;;;5.20;2.53;;;5.90;95.60;;;;;;5071141;28;20171;-85
2023/02/23 11:45:44;;;;;;;6.37;3.20;;;6.10;97.20;;;;;;5085168;28;20244;-84
2023/02/23 11:48:21;;;;;;;9.37;3.27;;;6.20;95.40;;;;;;5091791;28;20190;-84
2023/02/23 11:50:48;;;;;;;6.30;2.30;;;6.30;96.00;;;;;;5073877;28;20171;-85
2023/02/23 11:53:36;;;;;;;3.50;2.50;;;6.30;95.30;;;;;;5070559;28;20167;-85
2023/02/23 11:56:09;;;;;;;7.20;2.60;;;6.30;95.50;;;;;;5074328;28;20171;-84
2023/02/23 11:59:03;;;;;;;10.00;2.83;;;6.20;96.60;;;;;;5075081;28;20168;-85
2023/02/23 12:01:50;;;;;;;4.27;2.90;;;6.30;96.80;;;;;;5074306;28;20220;-87
2023/02/23 12:04:29;;;;;;;9.17;3.83;;;6.30;96.20;;;;;;5075160;28;20166;-85
2023/02/23 12:07:14;;;;;;;7.77;3.57;;;6.40;96.80;;;;;;5075451;28;20230;-84
2023/02/23 12:09:41;;;;;;;11.93;3.70;;;6.50;97.40;;;;;;5074222;28;20331;-85
2023/02/23 12:12:17;;;;;;;11.90;3.90;;;6.50;96.80;;;;;;5075514;28;20518;-86
2023/02/23 12:14:52;;;;;;;9.67;5.47;;;6.40;96.50;;;;;;5076876;28;20624;-89
2023/02/23 12:17:23;;;;;;;11.30;4.43;;;6.50;97.00;;;;;;5076361;28;20216;-89
2023/02/23 12:20:08;;;;;;;9.40;2.83;;;6.70;97.40;;;;;;5074775;28;20249;-89
2023/02/23 12:22:38;;;;;;;9.60;3.43;;;6.70;95.80;;;;;;5075461;28;20159;-88
2023/02/23 12:25:24;;;;;;;15.33;4.67;;;6.60;96.20;;;;;;5075744;28;20168;-88
2023/02/23 12:28:11;;;;;;;5.47;3.27;;;6.00;96.70;;;;;;5074228;28;20241;-87
2023/02/23 12:30:58;;;;;;;12.67;4.03;;;6.30;97.80;;;;;;5076146;28;20258;-88
2023/02/23 12:33:39;;;;;;;4.13;2.30;;;6.40;98.00;;;;;;5076052;28;20202;-89
2023/02/23 12:36:37;;;;;;;7.17;3.27;;;6.60;97.60;;;;;;5076567;28;20198;-86
2023/02/23 12:39:10;;;;;;;9.63;4.93;;;6.50;97.40;;;;;;5074920;28;20524;-86
2023/02/23 12:42:00;;;;;;;14.63;5.40;;;6.20;98.70;;;;;;5074389;28;20652;-86
2023/02/23 12:44:34;;;;;;;6.40;3.30;;;6.20;99.90;;;;;;5074493;28;20640;-86
2023/02/23 12:47:11;;;;;;;11.80;4.17;;;6.20;99.90;;;;;;5074485;28;20253;-85
2023/02/23 12:49:42;;;;;;;10.43;4.10;;;6.20;99.90;;;;;;5071888;28;20640;-85
2023/02/23 12:52:27;;;;;;;5.43;3.27;;;6.20;99.90;;;;;;5072031;28;20217;-85
2023/02/23 12:54:52;;;;;;;15.03;5.90;;;6.30;99.90;;;;;;5072876;28;20175;-85
2023/02/23 12:57:41;;;;;;;5.90;2.70;;;6.20;99.90;;;;;;5056680;28;20179;-85
2023/02/23 13:00:32;;;;;;;8.10;3.87;;;6.20;99.90;;;;;;5071615;28;20164;-86
2023/02/23 13:03:25;;;;;;;7.40;3.77;;;6.30;99.90;;;;;;5068882;28;20259;-86
2023/02/23 13:05:51;;;;;;;9.37;2.90;;;6.40;99.90;;;;;;5068266;28;20270;-85
2023/02/23 13:08:48;;;;;;;3.77;2.77;;;6.60;99.90;;;;;;5070967;28;21022;-85
2023/02/23 13:11:23;;;;;;;5.83;3.77;;;6.70;99.90;;;;;;5072148;28;20183;-86
2023/02/23 13:13:54;;;;;;;11.67;3.77;;;7.00;99.30;;;;;;5073614;28;20183;-86
2023/02/23 13:16:34;;;;;;;7.77;3.30;;;7.10;98.00;;;;;;5073874;28;20168;-85
2023/02/23 13:19:05;;;;;;;9.17;4.53;;;7.20;96.80;;;;;;5072103;28;20251;-87
2023/02/23 13:21:55;;;;;;;6.20;3.50;;;7.50;97.40;;;;;;5073460;28;20475;-86
2023/02/23 13:24:31;;;;;;;6.23;3.57;;;7.90;95.10;;;;;;5067480;28;20577;-88
2023/02/23 13:27:03;;;;;;;6.57;3.03;;;8.00;94.30;;;;;;5073096;28;20190;-86
2023/02/23 13:29:58;;;;;;;9.77;3.93;;;8.00;93.50;;;;;;5064763;28;20175;-86
2023/02/23 13:32:32;;;;;;;8.37;4.67;;;8.20;93.70;;;;;;5082994;28;20199;-87
2023/02/23 13:35:00;;;;;;;6.77;3.70;;;8.70;93.10;;;;;;5073291;28;20175;-86
2023/02/23 13:37:36;;;;;;;7.43;3.60;;;8.80;91.70;;;;;;5068966;28;20176;-87
2023/02/23 13:40:28;;;;;;;13.85;3.83;;;8.90;90.90;;;;;;5071629;28;20181;-87
2023/02/23 13:43:32;;;;;;;10.93;4.32;;;9.20;90.50;;;;;;5071787;28;20201;-86
2023/02/23 13:46:23;;;;;;;8.93;4.65;;;9.50;88.90;;;;;;5072198;28;20243;-86
2023/02/23 13:48:55;;;;;;;13.20;4.57;;;9.90;87.40;;;;;;5068725;28;20499;-86
2023/02/23 13:51:46;;;;;;;14.13;5.65;;;10.30;83.70;;;;;;5071376;28;20185;-85
2023/02/23 13:54:11;;;;;;;10.63;4.47;;;10.40;81.50;;;;;;5073428;28;20184;-88
2023/02/23 13:57:00;;;;;;;8.95;4.07;;;10.50;82.40;;;;;;5076198;28;20179;-86
2023/02/23 13:59:29;;;;;;;9.68;5.25;;;10.40;81.30;;;;;;5072582;28;20236;-89
2023/02/23 14:01:55;;;;;;;14.30;6.18;;;10.50;80.20;;;;;;5072408;28;20171;-86
2023/02/23 14:04:34;;;;;;;7.63;3.95;;;10.50;80.00;;;;;;5072544;28;20229;-86
2023/02/23 14:07:09;;;;;;;11.27;4.07;;;10.60;79.30;;;;;;5072279;28;20270;-87
2023/02/23 14:09:53;;;;;;;14.68;5.63;;;10.50;79.40;;;;;;5071149;28;20227;-87
2023/02/23 14:12:39;;;;;;;9.27;4.32;;;10.40;78.30;;;;;;5072871;28;20178;-86
2023/02/23 14:15:28;;;;;;;7.40;4.07;;;10.30;78.20;;;;;;5071335;28;20631;-86
2023/02/23 14:17:57;;;;;;;8.70;4.05;;;10.10;79.10;;;;;;5072004;28;20175;-86
2023/02/23 14:20:38;;;;;;;12.20;5.22;;;9.60;80.00;;;;;;5073204;28;20175;-85
2023/02/23 14:23:20;;;;;;;42.88;16.13;;;8.80;82.80;;;;;;5069590;28;20183;-87
2023/02/23 14:25:51;;;;;;;21.63;8.40;;;8.40;84.80;;;;;;5070662;28;20218;-88
2023/02/23 14:28:34;;;;;;;14.57;6.43;;;7.80;88.10;;;;;;5068140;28;20676;-87
2023/02/23 14:31:11;;;;;;;33.45;13.27;;;7.30;90.60;;;;;;5072151;28;20629;-86
2023/02/23 14:33:40;;;;;;;14.00;6.10;;;6.80;91.70;;;;;;5070818;28;20183;-86
2023/02/23 14:36:24;;;;;;;9.90;4.10;;;6.40;93.50;;;;;;5071202;28;20190;-87